Time;durP1;ratioP1;P1;durP2;ratioP2;P2;SDS_P1;SDS_P2;PMS_P1;PMS_P2;Temp;Humidity;BMP_temperature;BMP_pressure;BME280_temperature;BME280_humidity;BME280_pressure;Samples;Min_cycle;Max_cycle;Signal;HPM_P1;HPM_P2
2021/05/20 00:01:26;;;;;;;15.88;10.07;;;;;;;;;;5095650;28;20012;-64
2021/05/20 00:03:52;;;;;;;15.95;10.25;;;;;;;;;;5096756;28;20069;-64
2021/05/20 00:06:17;;;;;;;17.85;11.23;;;;;;;;;;5095688;28;20090;-64
2021/05/20 00:08:42;;;;;;;16.75;10.60;;;;;;;;;;5095484;28;20059;-64
2021/05/20 00:11:08;;;;;;;17.25;10.10;;;;;;;;;;5096678;28;20385;-64
2021/05/20 00:13:34;;;;;;;15.85;10.65;;;;;;;;;;5096527;28;20059;-65
2021/05/20 00:15:59;;;;;;;15.45;10.52;;;;;;;;;;5096547;28;20043;-65
2021/05/20 00:18:24;;;;;;;15.07;10.13;;;;;;;;;;5095163;28;20028;-63
2021/05/20 00:20:50;;;;;;;19.67;10.85;;;;;;;;;;5095272;28;20012;-62
2021/05/20 00:23:15;;;;;;;16.08;10.85;;;;;;;;;;5096411;28;20032;-63
2021/05/20 00:25:42;;;;;;;15.10;10.60;;;;;;;;;;5096395;28;20446;-63
2021/05/20 00:28:07;;;;;;;17.48;10.93;;;;;;;;;;5096318;28;20466;-64
2021/05/20 00:30:33;;;;;;;17.05;11.02;;;;;;;;;;5095097;28;20150;-64
2021/05/20 00:32:58;;;;;;;18.02;11.60;;;;;;;;;;5096024;28;20028;-64
2021/05/20 00:35:23;;;;;;;18.20;11.25;;;;;;;;;;5095697;28;20509;-64
2021/05/20 00:37:49;;;;;;;18.15;11.50;;;;;;;;;;5095781;28;20047;-63
2021/05/20 00:40:15;;;;;;;14.93;10.20;;;;;;;;;;5095730;28;20020;-63
2021/05/20 00:42:43;;;;;;;15.57;10.38;;;;;;;;;;5095697;28;20541;-64
2021/05/20 00:45:09;;;;;;;18.02;10.98;;;;;;;;;;5095870;28;20115;-64
2021/05/20 00:47:35;;;;;;;20.27;11.73;;;;;;;;;;5094502;28;20486;-64
2021/05/20 00:50:02;;;;;;;14.45;10.23;;;;;;;;;;5095838;28;20442;-63
2021/05/20 00:52:28;;;;;;;16.33;11.10;;;;;;;;;;5096041;28;20059;-63
2021/05/20 00:54:54;;;;;;;14.90;10.50;;;;;;;;;;5095493;28;20493;-63
2021/05/20 00:57:20;;;;;;;17.42;10.98;;;;;;;;;;5095756;28;20093;-63
2021/05/20 00:59:46;;;;;;;15.88;10.80;;;;;;;;;;5095795;28;20466;-64
2021/05/20 01:02:13;;;;;;;14.45;10.68;;;;;;;;;;5095579;28;20031;-64
2021/05/20 01:04:38;;;;;;;14.57;9.57;;;;;;;;;;5093937;28;20386;-63
2021/05/20 01:07:05;;;;;;;15.00;10.57;;;;;;;;;;5094880;28;20028;-63
2021/05/20 01:09:35;;;;;;;18.65;10.60;;;;;;;;;;5095457;28;20039;-63
2021/05/20 01:12:01;;;;;;;15.82;10.48;;;;;;;;;;5095441;28;20363;-63
2021/05/20 01:14:26;;;;;;;16.95;10.30;;;;;;;;;;5095166;28;20020;-63
2021/05/20 01:16:52;;;;;;;15.10;10.35;;;;;;;;;;5095297;28;20031;-63
2021/05/20 01:19:17;;;;;;;15.63;11.20;;;;;;;;;;5094036;28;20016;-64
2021/05/20 01:21:43;;;;;;;18.48;11.48;;;;;;;;;;5095207;28;20031;-64
2021/05/20 01:24:10;;;;;;;16.88;11.13;;;;;;;;;;5095107;28;20047;-63
2021/05/20 01:26:39;;;;;;;17.73;11.10;;;;;;;;;;5095069;28;20099;-64
2021/05/20 01:29:07;;;;;;;16.30;10.63;;;;;;;;;;5093778;28;20016;-64
2021/05/20 01:31:33;;;;;;;15.25;10.50;;;;;;;;;;5094988;28;20040;-63
2021/05/20 01:33:59;;;;;;;15.18;10.57;;;;;;;;;;5094764;28;20032;-63
2021/05/20 01:36:25;;;;;;;14.40;10.40;;;;;;;;;;5094721;28;20505;-64
2021/05/20 01:38:51;;;;;;;15.48;10.55;;;;;;;;;;5094843;28;20032;-63
2021/05/20 01:41:17;;;;;;;15.68;10.15;;;;;;;;;;5093848;28;20036;-63
2021/05/20 01:43:42;;;;;;;13.60;9.55;;;;;;;;;;5094901;28;20027;-63
2021/05/20 01:46:08;;;;;;;14.13;10.07;;;;;;;;;;5094802;28;20024;-63
2021/05/20 01:48:37;;;;;;;12.77;9.18;;;;;;;;;;5094862;28;20458;-63
2021/05/20 01:51:07;;;;;;;13.90;9.07;;;;;;;;;;5093194;28;20394;-64
2021/05/20 01:53:33;;;;;;;14.52;9.48;;;;;;;;;;5094590;28;20736;-62
2021/05/20 01:55:59;;;;;;;14.05;8.95;;;;;;;;;;5094488;28;20381;-63
2021/05/20 01:58:24;;;;;;;12.50;8.90;;;;;;;;;;5094476;28;20020;-63
2021/05/20 02:00:50;;;;;;;11.98;8.82;;;;;;;;;;5094400;28;20016;-63
2021/05/20 02:03:15;;;;;;;11.88;8.38;;;;;;;;;;5094596;28;20012;-63
2021/05/20 02:05:41;;;;;;;13.38;8.70;;;;;;;;;;5094449;28;20053;-63
2021/05/20 02:08:06;;;;;;;15.15;8.38;;;;;;;;;;5094239;28;20020;-64
2021/05/20 02:10:32;;;;;;;11.02;8.38;;;;;;;;;;5092936;28;20035;-63
2021/05/20 02:12:57;;;;;;;10.80;7.68;;;;;;;;;;5094231;28;20012;-63
2021/05/20 02:15:23;;;;;;;10.73;7.65;;;;;;;;;;5094235;28;20024;-64
2021/05/20 02:17:49;;;;;;;9.93;7.93;;;;;;;;;;5094157;28;20474;-64
2021/05/20 02:20:14;;;;;;;9.15;7.50;;;;;;;;;;5094178;28;20028;-63
2021/05/20 02:22:40;;;;;;;9.80;7.35;;;;;;;;;;5094073;28;20027;-62
2021/05/20 02:25:06;;;;;;;10.82;7.80;;;;;;;;;;5093658;28;20039;-62
2021/05/20 02:27:32;;;;;;;9.57;7.55;;;;;;;;;;5094096;28;20024;-62
2021/05/20 02:29:57;;;;;;;9.43;7.53;;;;;;;;;;5093142;28;20120;-62
2021/05/20 02:32:22;;;;;;;11.90;7.60;;;;;;;;;;5092815;28;20102;-62
2021/05/20 02:34:48;;;;;;;11.10;6.90;;;;;;;;;;5093458;28;20052;-63
2021/05/20 02:37:14;;;;;;;10.05;7.40;;;;;;;;;;5092577;28;20075;-63
2021/05/20 02:39:39;;;;;;;9.35;7.57;;;;;;;;;;5092389;28;20039;-63
2021/05/20 02:42:05;;;;;;;10.95;7.53;;;;;;;;;;5093752;28;20493;-62
2021/05/20 02:44:30;;;;;;;10.23;7.65;;;;;;;;;;5093700;28;20069;-62
2021/05/20 02:46:56;;;;;;;10.35;7.63;;;;;;;;;;5093860;28;20462;-63
2021/05/20 02:49:21;;;;;;;11.13;8.00;;;;;;;;;;5092598;28;20369;-63
2021/05/20 02:51:47;;;;;;;16.65;8.73;;;;;;;;;;5093727;28;20022;-63
2021/05/20 02:54:12;;;;;;;13.70;8.23;;;;;;;;;;5093733;28;20493;-63
2021/05/20 02:56:38;;;;;;;11.43;7.50;;;;;;;;;;5093830;28;20042;-63
2021/05/20 02:59:03;;;;;;;10.27;8.15;;;;;;;;;;5093764;28;20055;-63
2021/05/20 03:01:29;;;;;;;12.02;8.00;;;;;;;;;;5093509;28;20028;-63
2021/05/20 03:03:55;;;;;;;11.70;8.25;;;;;;;;;;5093440;28;20032;-63
2021/05/20 03:06:21;;;;;;;15.30;8.40;;;;;;;;;;5093362;28;20037;-66
2021/05/20 03:08:46;;;;;;;11.85;8.35;;;;;;;;;;5093239;28;20024;-66
2021/05/20 03:11:12;;;;;;;11.50;8.45;;;;;;;;;;5093359;28;20478;-65
2021/05/20 03:13:37;;;;;;;11.25;8.50;;;;;;;;;;5093331;28;20028;-63
2021/05/20 03:16:03;;;;;;;13.38;9.13;;;;;;;;;;5093379;28;20456;-66
2021/05/20 03:18:28;;;;;;;10.73;8.77;;;;;;;;;;5092480;28;20035;-66
2021/05/20 03:20:54;;;;;;;12.63;9.27;;;;;;;;;;5093668;28;20030;-65
2021/05/20 03:23:19;;;;;;;11.48;9.07;;;;;;;;;;5093306;28;20032;-64
2021/05/20 03:25:44;;;;;;;13.80;9.27;;;;;;;;;;5093198;28;20070;-64
2021/05/20 03:28:10;;;;;;;13.18;9.13;;;;;;;;;;5093320;28;20048;-63
2021/05/20 03:30:35;;;;;;;14.02;8.88;;;;;;;;;;5096706;28;20075;-63
2021/05/20 03:33:01;;;;;;;13.50;9.15;;;;;;;;;;5097390;28;20046;-63
2021/05/20 03:35:26;;;;;;;14.63;9.00;;;;;;;;;;5096648;28;20040;-63
2021/05/20 03:37:52;;;;;;;13.90;8.40;;;;;;;;;;5097271;28;20028;-63
2021/05/20 03:40:17;;;;;;;13.10;9.32;;;;;;;;;;5097142;28;20039;-63
2021/05/20 03:42:43;;;;;;;13.18;9.13;;;;;;;;;;5097136;28;20024;-62
2021/05/20 03:45:09;;;;;;;16.13;8.55;;;;;;;;;;5097197;28;20024;-62
2021/05/20 03:47:35;;;;;;;16.77;8.82;;;;;;;;;;5096754;28;20078;-62
2021/05/20 03:50:01;;;;;;;12.50;8.80;;;;;;;;;;5096883;28;20020;-63
2021/05/20 03:52:26;;;;;;;11.95;9.02;;;;;;;;;;5096921;28;20039;-63
2021/05/20 03:54:52;;;;;;;12.05;9.05;;;;;;;;;;5096876;28;20023;-63
2021/05/20 03:57:17;;;;;;;15.70;9.05;;;;;;;;;;5096861;28;20028;-63
2021/05/20 03:59:43;;;;;;;12.23;9.38;;;;;;;;;;5096432;28;20061;-62
2021/05/20 04:02:08;;;;;;;12.40;9.35;;;;;;;;;;5096566;28;20024;-62
2021/05/20 04:04:35;;;;;;;16.73;10.23;;;;;;;;;;5096762;28;20012;-62
2021/05/20 04:07:01;;;;;;;16.67;9.25;;;;;;;;;;5096636;28;20504;-62
2021/05/20 04:09:26;;;;;;;13.48;9.75;;;;;;;;;;5096813;28;20049;-62
2021/05/20 04:11:52;;;;;;;12.90;9.10;;;;;;;;;;5096486;28;20034;-62
2021/05/20 04:14:17;;;;;;;12.05;8.85;;;;;;;;;;5095695;28;20355;-62
2021/05/20 04:16:43;;;;;;;12.88;8.55;;;;;;;;;;5096584;28;20066;-62
2021/05/20 04:19:08;;;;;;;13.20;9.15;;;;;;;;;;5096218;28;20035;-62
2021/05/20 04:21:34;;;;;;;19.48;11.10;;;;;;;;;;5096203;28;20075;-62
2021/05/20 04:24:00;;;;;;;13.98;9.40;;;;;;;;;;5096323;28;20381;-62
2021/05/20 04:26:26;;;;;;;10.02;7.38;;;;;;;;;;5096340;28;20042;-62
2021/05/20 04:28:51;;;;;;;10.05;8.13;;;;;;;;;;5096330;28;20091;-62
2021/05/20 04:31:17;;;;;;;10.00;7.50;;;;;;;;;;5096375;28;20502;-62
2021/05/20 04:33:43;;;;;;;7.72;6.90;;;;;;;;;;5096296;28;20027;-64
2021/05/20 04:36:09;;;;;;;6.35;5.63;;;;;;;;;;5095978;28;20486;-63
2021/05/20 04:38:34;;;;;;;9.00;6.95;;;;;;;;;;5096226;28;20085;-63
2021/05/20 04:41:00;;;;;;;9.60;6.30;;;;;;;;;;5094933;28;20483;-63
2021/05/20 04:43:25;;;;;;;12.40;8.70;;;;;;;;;;5095785;28;20479;-63
2021/05/20 04:45:51;;;;;;;15.43;9.38;;;;;;;;;;5094726;28;20028;-64
2021/05/20 04:48:16;;;;;;;12.80;8.50;;;;;;;;;;5095741;28;20066;-65
2021/05/20 04:50:42;;;;;;;10.48;6.97;;;;;;;;;;5095550;28;20052;-65
2021/05/20 04:53:08;;;;;;;15.75;8.18;;;;;;;;;;5095641;28;20023;-65
2021/05/20 04:55:34;;;;;;;12.32;8.68;;;;;;;;;;5095600;28;20036;-65
2021/05/20 04:57:59;;;;;;;14.43;8.48;;;;;;;;;;5095621;28;20023;-65
2021/05/20 05:00:25;;;;;;;13.23;8.32;;;;;;;;;;5095634;28;20052;-64
2021/05/20 05:02:50;;;;;;;12.73;7.65;;;;;;;;;;5095793;28;20050;-65
2021/05/20 05:05:16;;;;;;;11.75;7.55;;;;;;;;;;5094803;28;20470;-65
2021/05/20 05:07:42;;;;;;;11.07;8.23;;;;;;;;;;5095984;28;20422;-65
2021/05/20 05:10:08;;;;;;;16.67;9.32;;;;;;;;;;5094971;28;20085;-65
2021/05/20 05:12:33;;;;;;;11.77;8.82;;;;;;;;;;5094325;28;20377;-65
2021/05/20 05:14:59;;;;;;;15.77;8.38;;;;;;;;;;5094711;28;20455;-65
2021/05/20 05:17:25;;;;;;;10.75;7.60;;;;;;;;;;5094929;28;20015;-65
2021/05/20 05:19:51;;;;;;;12.30;8.18;;;;;;;;;;5094901;28;20046;-64
2021/05/20 05:22:18;;;;;;;11.32;8.30;;;;;;;;;;5093743;28;20040;-65
2021/05/20 05:24:44;;;;;;;12.75;8.00;;;;;;;;;;5091642;28;20024;-65
2021/05/20 05:27:09;;;;;;;11.20;7.32;;;;;;;;;;5094597;28;20061;-65
2021/05/20 05:29:35;;;;;;;9.45;6.75;;;;;;;;;;5094498;28;20110;-66
2021/05/20 05:32:01;;;;;;;11.75;7.38;;;;;;;;;;5095025;28;20028;-66
2021/05/20 05:34:26;;;;;;;10.98;7.28;;;;;;;;;;5094359;28;20477;-66
2021/05/20 05:36:52;;;;;;;11.98;7.72;;;;;;;;;;5093807;28;20044;-66
2021/05/20 05:39:18;;;;;;;9.63;7.10;;;;;;;;;;5093350;28;20114;-65
2021/05/20 05:41:43;;;;;;;11.07;7.40;;;;;;;;;;5094995;28;20023;-66
2021/05/20 05:44:11;;;;;;;8.32;6.72;;;;;;;;;;5094684;28;20032;-64
2021/05/20 05:46:36;;;;;;;9.02;6.53;;;;;;;;;;5094627;28;20085;-67
2021/05/20 05:49:12;;;;;;;13.07;7.38;;;;;;;;;;5093804;28;20032;-65
2021/05/20 05:51:40;;;;;;;10.40;6.30;;;;;;;;;;5093766;28;20032;-65
2021/05/20 05:54:06;;;;;;;6.30;5.40;;;;;;;;;;5094783;28;20371;-65
2021/05/20 05:56:31;;;;;;;8.38;5.80;;;;;;;;;;5094568;28;20062;-65
2021/05/20 05:58:57;;;;;;;8.50;7.18;;;;;;;;;;5094368;28;20405;-65
2021/05/20 06:01:22;;;;;;;8.82;7.07;;;;;;;;;;5094203;28;20051;-65
2021/05/20 06:03:47;;;;;;;9.02;6.68;;;;;;;;;;5094623;28;20051;-65
2021/05/20 06:06:13;;;;;;;8.02;7.03;;;;;;;;;;5094582;28;20165;-65
2021/05/20 06:08:39;;;;;;;7.50;6.07;;;;;;;;;;5094335;28;20032;-65
2021/05/20 06:11:04;;;;;;;8.45;6.88;;;;;;;;;;5094133;28;20055;-65
2021/05/20 06:13:30;;;;;;;8.27;7.00;;;;;;;;;;5094241;28;20521;-65
2021/05/20 06:15:55;;;;;;;8.45;6.22;;;;;;;;;;5094009;28;20047;-64
2021/05/20 06:18:20;;;;;;;10.50;6.50;;;;;;;;;;5094000;28;20031;-65
2021/05/20 06:20:46;;;;;;;7.00;5.50;;;;;;;;;;5093218;28;20169;-65
2021/05/20 06:23:12;;;;;;;6.45;5.47;;;;;;;;;;5094086;28;20088;-65
2021/05/20 06:25:40;;;;;;;7.45;5.60;;;;;;;;;;5093878;28;20024;-65
2021/05/20 06:28:06;;;;;;;6.38;4.78;;;;;;;;;;5093826;28;20098;-65
2021/05/20 06:30:32;;;;;;;5.50;4.93;;;;;;;;;;5093984;28;20108;-65
2021/05/20 06:32:57;;;;;;;6.97;5.53;;;;;;;;;;5093553;28;20016;-65
2021/05/20 06:35:23;;;;;;;7.13;5.18;;;;;;;;;;5093400;28;20048;-65
2021/05/20 06:37:50;;;;;;;8.82;5.05;;;;;;;;;;5093349;28;20058;-64
2021/05/20 06:40:15;;;;;;;4.90;4.47;;;;;;;;;;5093589;28;20016;-64
2021/05/20 06:42:41;;;;;;;5.78;5.18;;;;;;;;;;5093777;28;20091;-64
2021/05/20 06:45:07;;;;;;;5.72;5.22;;;;;;;;;;5093921;28;20020;-64
2021/05/20 06:47:32;;;;;;;6.60;5.60;;;;;;;;;;5093350;28;20107;-64
2021/05/20 06:49:57;;;;;;;5.78;5.18;;;;;;;;;;5093699;28;20411;-63
2021/05/20 06:52:23;;;;;;;6.32;5.70;;;;;;;;;;5092052;28;20053;-63
2021/05/20 06:54:48;;;;;;;7.30;5.40;;;;;;;;;;5093607;28;20030;-63
2021/05/20 07:00:01;;;;;;;6.90;5.85;;;;;;;;;;5093360;28;20051;-63
2021/05/20 07:02:28;;;;;;;5.97;5.38;;;;;;;;;;5093689;28;20020;-63
2021/05/20 07:04:53;;;;;;;7.03;4.72;;;;;;;;;;5092967;28;20077;-63
2021/05/20 07:07:19;;;;;;;6.45;4.53;;;;;;;;;;5093319;28;20020;-63
2021/05/20 07:09:47;;;;;;;4.53;4.10;;;;;;;;;;5093308;28;20466;-63
2021/05/20 07:12:13;;;;;;;4.78;4.38;;;;;;;;;;5093585;28;20024;-64
2021/05/20 07:14:39;;;;;;;5.85;4.30;;;;;;;;;;5093402;28;20028;-64
2021/05/20 07:17:04;;;;;;;7.72;4.68;;;;;;;;;;5092094;28;20490;-64
2021/05/20 07:19:30;;;;;;;4.63;3.65;;;;;;;;;;5093310;28;20386;-64
2021/05/20 07:21:55;;;;;;;4.25;3.85;;;;;;;;;;5093419;28;20020;-65
2021/05/20 07:24:21;;;;;;;3.88;2.60;;;;;;;;;;5093443;28;20062;-65
2021/05/20 07:26:46;;;;;;;4.45;3.20;;;;;;;;;;5093144;28;20064;-65
2021/05/20 07:29:12;;;;;;;3.95;3.35;;;;;;;;;;5093094;28;20068;-64
2021/05/20 07:31:37;;;;;;;3.22;2.83;;;;;;;;;;5093327;28;20028;-64
2021/05/20 07:34:03;;;;;;;3.55;2.70;;;;;;;;;;5093299;28;20066;-64
2021/05/20 07:36:29;;;;;;;2.60;2.40;;;;;;;;;;5093346;28;20482;-64
2021/05/20 07:38:54;;;;;;;2.60;2.40;;;;;;;;;;5093517;28;20028;-64
2021/05/20 07:41:20;;;;;;;3.38;2.13;;;;;;;;;;5093300;28;20026;-64
2021/05/20 07:43:46;;;;;;;2.33;1.63;;;;;;;;;;5093152;28;20106;-64
2021/05/20 07:46:11;;;;;;;2.47;2.10;;;;;;;;;;5092695;28;20020;-64
2021/05/20 07:48:37;;;;;;;1.80;1.48;;;;;;;;;;5093084;28;20469;-64
2021/05/20 07:51:03;;;;;;;2.85;1.98;;;;;;;;;;5092907;28;20024;-65
2021/05/20 07:53:29;;;;;;;2.15;1.88;;;;;;;;;;5093008;28;20386;-65
2021/05/20 07:55:54;;;;;;;1.60;1.50;;;;;;;;;;5091839;28;20020;-65
2021/05/20 07:58:20;;;;;;;1.63;1.48;;;;;;;;;;5092652;28;20389;-65
2021/05/20 08:00:46;;;;;;;2.47;1.33;;;;;;;;;;5093109;28;20065;-65
2021/05/20 08:05:48;;;;;;;1.80;1.70;;;;;;;;;;5092759;28;20012;-65
2021/05/20 08:10:50;;;;;;;1.50;1.40;;;;;;;;;;5093193;28;20058;-65
2021/05/20 08:13:16;;;;;;;1.77;1.33;;;;;;;;;;5092945;28;20478;-65
2021/05/20 08:15:42;;;;;;;1.50;1.40;;;;;;;;;;5094736;28;20103;-65
2021/05/20 08:18:07;;;;;;;1.70;1.60;;;;;;;;;;5096431;28;20543;-65
2021/05/20 08:20:33;;;;;;;1.55;1.45;;;;;;;;;;5096499;28;20020;-65
2021/05/20 08:22:59;;;;;;;2.15;1.40;;;;;;;;;;5096532;28;20028;-65
2021/05/20 08:25:26;;;;;;;1.60;1.50;;;;;;;;;;5095091;28;20019;-65
2021/05/20 08:27:51;;;;;;;1.65;1.38;;;;;;;;;;5094867;28;20035;-65
2021/05/20 08:30:18;;;;;;;3.33;1.60;;;;;;;;;;5095110;28;20012;-64
2021/05/20 08:32:46;;;;;;;1.33;1.23;;;;;;;;;;5096141;28;20020;-65
2021/05/20 08:35:11;;;;;;;1.30;1.23;;;;;;;;;;5095423;28;20044;-65
2021/05/20 08:37:39;;;;;;;2.17;1.70;;;;;;;;;;5096307;28;20032;-65
2021/05/20 08:40:05;;;;;;;1.40;1.30;;;;;;;;;;5096252;28;20032;-65
2021/05/20 08:42:31;;;;;;;1.23;1.20;;;;;;;;;;5095872;28;20078;-65
2021/05/20 08:44:57;;;;;;;1.33;1.30;;;;;;;;;;5095882;28;20420;-65
2021/05/20 08:47:23;;;;;;;1.10;1.10;;;;;;;;;;5095781;28;20048;-65
2021/05/20 08:49:49;;;;;;;1.17;1.17;;;;;;;;;;5095780;28;20016;-65
2021/05/20 08:52:15;;;;;;;1.00;1.00;;;;;;;;;;5095716;28;20115;-65
2021/05/20 08:54:40;;;;;;;1.05;1.02;;;;;;;;;;5095823;28;20531;-65
2021/05/20 08:57:06;;;;;;;2.17;0.90;;;;;;;;;;5095630;28;20025;-65
2021/05/20 08:59:31;;;;;;;1.08;0.95;;;;;;;;;;5095422;28;20020;-65
2021/05/20 09:01:59;;;;;;;1.33;1.20;;;;;;;;;;5095649;28;20024;-65
2021/05/20 09:04:27;;;;;;;0.80;0.80;;;;;;;;;;5095663;28;20481;-66
2021/05/20 09:07:02;;;;;;;1.00;1.00;;;;;;;;;;5095325;28;20028;-65
2021/05/20 09:09:36;;;;;;;0.95;0.85;;;;;;;;;;5095486;28;20063;-65
2021/05/20 09:12:02;;;;;;;0.80;0.80;;;;;;;;;;5095344;28;20032;-65
2021/05/20 09:14:41;;;;;;;0.80;0.80;;;;;;;;;;5095229;28;20073;-65
2021/05/20 09:17:19;;;;;;;3.50;0.63;;;;;;;;;;5095211;28;20031;-65
2021/05/20 09:19:51;;;;;;;1.27;1.23;;;;;;;;;;5095157;28;20278;-64
2021/05/20 09:22:17;;;;;;;3.10;1.10;;;;;;;;;;5095408;28;20475;-64
2021/05/20 09:24:50;;;;;;;1.00;0.90;;;;;;;;;;5094148;28;20027;-65
2021/05/20 09:27:26;;;;;;;1.23;1.13;;;;;;;;;;5094878;28;20032;-65
2021/05/20 09:30:07;;;;;;;0.90;0.90;;;;;;;;;;5095168;28;20489;-65
2021/05/20 09:32:34;;;;;;;;;;;;;;;;;;5095489;28;20024;-65
2021/05/20 09:35:01;;;;;;;1.40;0.90;;;;;;;;;;5094605;28;19927;-66
2021/05/20 09:37:27;;;;;;;0.73;0.73;;;;;;;;;;5094462;28;20039;-67
2021/05/20 09:39:59;;;;;;;1.08;0.80;;;;;;;;;;5094665;28;20032;-65
2021/05/20 09:42:28;;;;;;;1.05;0.80;;;;;;;;;;5094927;28;20497;-65
2021/05/20 09:44:53;;;;;;;0.90;0.90;;;;;;;;;;5094792;28;20020;-65
2021/05/20 09:47:19;;;;;;;1.00;0.93;;;;;;;;;;5094984;28;20065;-66
2021/05/20 09:49:59;;;;;;;1.35;0.60;;;;;;;;;;5094652;28;20036;-66
2021/05/20 09:52:25;;;;;;;1.00;0.90;;;;;;;;;;5094744;28;20032;-66
2021/05/20 09:54:50;;;;;;;1.45;0.88;;;;;;;;;;5094698;28;20496;-66
2021/05/20 09:57:30;;;;;;;0.57;0.57;;;;;;;;;;5094562;28;20032;-66
2021/05/20 09:59:59;;;;;;;1.88;0.50;;;;;;;;;;5094615;28;20032;-66
2021/05/20 10:02:25;;;;;;;1.33;0.50;;;;;;;;;;5094578;28;20046;-66
2021/05/20 10:04:53;;;;;;;1.30;0.60;;;;;;;;;;5094496;28;20526;-66
2021/05/20 10:07:28;;;;;;;0.68;0.68;;;;;;;;;;5094446;28;20093;-66
2021/05/20 10:09:54;;;;;;;0.70;0.70;;;;;;;;;;5094392;28;20440;-67
2021/05/20 10:12:20;;;;;;;0.85;0.80;;;;;;;;;;5094264;28;20030;-66
2021/05/20 10:14:47;;;;;;;0.52;0.52;;;;;;;;;;5094034;28;20024;-66
2021/05/20 10:17:13;;;;;;;0.63;0.47;;;;;;;;;;5094117;28;20381;-67
2021/05/20 10:19:39;;;;;;;0.55;0.55;;;;;;;;;;5092676;28;20367;-67
2021/05/20 10:22:05;;;;;;;0.50;0.50;;;;;;;;;;5093965;28;20066;-67
2021/05/20 10:24:31;;;;;;;0.60;0.50;;;;;;;;;;5093968;28;20109;-66
2021/05/20 10:26:57;;;;;;;0.70;0.60;;;;;;;;;;5094168;28;20069;-65
2021/05/20 10:29:23;;;;;;;0.40;0.40;;;;;;;;;;5092396;28;20040;-60
2021/05/20 10:31:49;;;;;;;1.23;0.52;;;;;;;;;;5093615;28;20024;-67
2021/05/20 10:34:17;;;;;;;0.47;0.47;;;;;;;;;;5094076;28;20035;-67
2021/05/20 10:36:55;;;;;;;0.90;0.40;;;;;;;;;;5093979;28;20028;-67
2021/05/20 10:39:21;;;;;;;0.35;0.35;;;;;;;;;;5092896;28;20509;-67
2021/05/20 10:41:47;;;;;;;0.93;0.50;;;;;;;;;;5093752;28;20016;-67
2021/05/20 10:44:14;;;;;;;1.45;0.40;;;;;;;;;;5093943;28;20024;-67
2021/05/20 10:47:02;;;;;;;0.50;0.50;;;;;;;;;;5093814;28;20027;-67
2021/05/20 10:49:46;;;;;;;0.93;0.50;;;;;;;;;;5093682;28;20032;-67
2021/05/20 10:52:47;;;;;;;0.40;0.40;;;;;;;;;;5093524;28;20032;-67
2021/05/20 10:55:13;;;;;;;0.60;0.50;;;;;;;;;;5051413;28;20037;-62
2021/05/20 10:57:52;;;;;;;0.50;0.50;;;;;;;;;;5085297;28;20497;-62
2021/05/20 11:00:37;;;;;;;1.05;0.50;;;;;;;;;;5093490;28;20393;-62
2021/05/20 11:03:03;;;;;;;2.17;0.40;;;;;;;;;;5093741;28;20435;-62
2021/05/20 11:05:40;;;;;;;0.38;0.35;;;;;;;;;;5093658;28;20040;-63
2021/05/20 11:08:24;;;;;;;0.82;0.52;;;;;;;;;;5093576;28;20342;-63
2021/05/20 11:10:50;;;;;;;0.80;0.80;;;;;;;;;;5093629;28;20086;-63
2021/05/20 11:13:34;;;;;;;0.82;0.60;;;;;;;;;;5092465;28;20048;-63
2021/05/20 11:16:16;;;;;;;0.50;0.50;;;;;;;;;;5092776;28;20039;-63
2021/05/20 11:18:43;;;;;;;0.40;0.40;;;;;;;;;;5092021;28;20032;-63
2021/05/20 11:21:08;;;;;;;0.60;0.50;;;;;;;;;;5092080;28;20019;-63
2021/05/20 11:23:36;;;;;;;0.77;0.77;;;;;;;;;;5090994;28;20028;-63
2021/05/20 11:26:03;;;;;;;0.98;0.70;;;;;;;;;;5090848;28;20016;-63
2021/05/20 11:28:29;;;;;;;1.10;0.50;;;;;;;;;;5090745;28;20021;-63
2021/05/20 11:31:00;;;;;;;0.80;0.80;;;;;;;;;;5092212;28;20073;-63
2021/05/20 11:33:29;;;;;;;0.77;0.60;;;;;;;;;;5092904;28;20020;-63
2021/05/20 11:38:27;;;;;;;0.85;0.70;;;;;;;;;;5093059;28;20061;-63
2021/05/20 11:40:52;;;;;;;2.03;0.50;;;;;;;;;;5093017;28;20012;-63
2021/05/20 11:43:30;;;;;;;1.60;0.55;;;;;;;;;;5091724;28;20026;-63
2021/05/20 11:45:56;;;;;;;0.75;0.50;;;;;;;;;;5092892;28;20105;-63
2021/05/20 11:48:22;;;;;;;2.13;0.47;;;;;;;;;;5092809;28;20466;-63
2021/05/20 11:50:51;;;;;;;1.02;0.50;;;;;;;;;;5094876;28;20077;-64
2021/05/20 11:53:16;;;;;;;0.65;0.45;;;;;;;;;;5096832;28;20063;-63
2021/05/20 11:55:43;;;;;;;0.90;0.90;;;;;;;;;;5096690;28;20489;-63
2021/05/20 11:58:08;;;;;;;0.60;0.57;;;;;;;;;;5096612;28;20466;-64
2021/05/20 12:00:33;;;;;;;0.88;0.85;;;;;;;;;;5096359;28;20024;-63
2021/05/20 12:03:00;;;;;;;2.10;0.50;;;;;;;;;;5095338;28;20494;-63
2021/05/20 12:05:26;;;;;;;0.65;0.50;;;;;;;;;;5096460;28;20028;-63
2021/05/20 12:07:51;;;;;;;1.65;0.50;;;;;;;;;;5096336;28;20018;-63
2021/05/20 12:10:17;;;;;;;0.65;0.57;;;;;;;;;;5096327;28;20032;-64
2021/05/20 12:12:44;;;;;;;0.85;0.50;;;;;;;;;;5096285;28;20388;-63
2021/05/20 12:15:13;;;;;;;0.88;0.85;;;;;;;;;;5096421;28;20028;-63
2021/05/20 12:17:39;;;;;;;1.67;1.20;;;;;;;;;;5096252;28;20012;-64
2021/05/20 12:20:04;;;;;;;0.55;0.40;;;;;;;;;;5096104;28;20020;-63
2021/05/20 12:22:30;;;;;;;0.40;0.40;;;;;;;;;;5094732;28;20008;-63
2021/05/20 12:24:56;;;;;;;0.50;0.50;;;;;;;;;;5096059;28;20057;-63
2021/05/20 12:27:36;;;;;;;0.65;0.50;;;;;;;;;;5095913;28;20378;-63
2021/05/20 12:30:02;;;;;;;;;;;;;;;;;;5096480;28;20024;-63
2021/05/20 12:32:30;;;;;;;2.10;0.50;;;;;;;;;;5096045;28;19904;-63
2021/05/20 12:35:27;;;;;;;0.63;0.60;;;;;;;;;;5095468;28;20759;-63
2021/05/20 12:37:59;;;;;;;0.50;0.50;;;;;;;;;;5086840;28;20490;-63
2021/05/20 12:40:27;;;;;;;0.50;0.50;;;;;;;;;;5095756;28;20027;-63
2021/05/20 12:43:04;;;;;;;1.75;0.95;;;;;;;;;;5095592;28;20066;-63
2021/05/20 12:45:31;;;;;;;1.15;0.90;;;;;;;;;;5095801;28;20032;-63
2021/05/20 12:47:57;;;;;;;1.13;0.90;;;;;;;;;;5095671;28;20028;-63
2021/05/20 12:50:35;;;;;;;3.13;2.42;;;;;;;;;;5095612;28;20024;-63
2021/05/20 12:53:01;;;;;;;0.80;0.80;;;;;;;;;;5094340;28;20035;-63
2021/05/20 12:55:30;;;;;;;1.00;0.60;;;;;;;;;;5095659;28;20446;-64
2021/05/20 12:57:58;;;;;;;0.60;0.60;;;;;;;;;;5095400;28;20031;-63
2021/05/20 13:00:24;;;;;;;0.77;0.57;;;;;;;;;;5095373;28;20016;-63
2021/05/20 13:02:59;;;;;;;2.38;0.70;;;;;;;;;;5094294;28;20058;-63
2021/05/20 13:05:27;;;;;;;0.80;0.80;;;;;;;;;;5095315;28;20028;-63
2021/05/20 13:07:52;;;;;;;2.55;1.00;;;;;;;;;;5095227;28;20042;-63
2021/05/20 13:10:31;;;;;;;2.28;2.15;;;;;;;;;;5093948;28;20032;-63
2021/05/20 13:12:56;;;;;;;0.77;0.77;;;;;;;;;;5095392;28;20123;-63
2021/05/20 13:15:22;;;;;;;1.50;0.60;;;;;;;;;;5094661;28;20102;-64
2021/05/20 13:18:14;;;;;;;0.60;0.60;;;;;;;;;;5096190;28;20119;-63
2021/05/20 13:23:08;;;;;;;0.50;0.50;;;;;;;;;;5095003;28;20058;-63
2021/05/20 13:25:34;;;;;;;1.20;0.77;;;;;;;;;;5095258;28;20035;-61
2021/05/20 13:27:59;;;;;;;2.50;0.75;;;;;;;;;;5094910;28;20016;-61
2021/05/20 13:30:40;;;;;;;0.60;0.60;;;;;;;;;;5095179;28;20020;-61
2021/05/20 13:33:08;;;;;;;1.40;0.70;;;;;;;;;;5095073;28;20415;-61
2021/05/20 13:35:33;;;;;;;0.60;0.60;;;;;;;;;;5093746;28;20040;-63
2021/05/20 13:37:59;;;;;;;0.90;0.70;;;;;;;;;;5094455;28;20189;-63
2021/05/20 13:40:27;;;;;;;0.80;0.77;;;;;;;;;;5093757;28;20027;-63
2021/05/20 13:42:53;;;;;;;0.80;0.80;;;;;;;;;;5093623;28;20016;-63
2021/05/20 13:45:20;;;;;;;1.75;0.70;;;;;;;;;;5093919;28;20385;-64
2021/05/20 13:47:45;;;;;;;2.65;0.80;;;;;;;;;;5093862;28;20575;-63
2021/05/20 13:50:11;;;;;;;0.63;0.60;;;;;;;;;;5094603;28;20032;-63
2021/05/20 13:52:42;;;;;;;0.65;0.60;;;;;;;;;;5094570;28;20038;-64
2021/05/20 13:55:09;;;;;;;0.50;0.50;;;;;;;;;;5094637;28;20509;-64
2021/05/20 13:57:34;;;;;;;1.27;0.60;;;;;;;;;;5094479;28;20035;-64
2021/05/20 14:00:05;;;;;;;2.33;1.02;;;;;;;;;;5093392;28;20032;-64
2021/05/20 14:02:33;;;;;;;1.08;1.00;;;;;;;;;;5094228;28;20036;-64
2021/05/20 14:04:58;;;;;;;1.10;1.00;;;;;;;;;;5094637;28;20016;-64
2021/05/20 14:07:24;;;;;;;0.88;0.80;;;;;;;;;;5093170;28;20035;-65
2021/05/20 14:09:49;;;;;;;1.42;0.75;;;;;;;;;;5094513;28;20493;-64
2021/05/20 14:12:15;;;;;;;0.77;0.70;;;;;;;;;;5093119;28;20406;-65
2021/05/20 14:14:41;;;;;;;0.85;0.73;;;;;;;;;;5093732;28;20428;-64
2021/05/20 14:17:08;;;;;;;1.20;0.80;;;;;;;;;;5094250;28;20169;-65
2021/05/20 14:19:35;;;;;;;1.88;1.20;;;;;;;;;;5094184;28;20020;-65
2021/05/20 14:22:02;;;;;;;1.65;0.80;;;;;;;;;;5094299;28;20024;-65
2021/05/20 14:24:27;;;;;;;0.82;0.82;;;;;;;;;;5094202;28;20039;-64
2021/05/20 14:26:54;;;;;;;1.35;0.95;;;;;;;;;;5093247;28;20549;-65
2021/05/20 14:29:19;;;;;;;0.93;0.60;;;;;;;;;;5094082;28;20030;-65
2021/05/20 14:31:45;;;;;;;1.42;0.80;;;;;;;;;;5093913;28;20063;-65
2021/05/20 14:34:13;;;;;;;0.60;0.60;;;;;;;;;;5093786;28;20008;-65
2021/05/20 14:36:39;;;;;;;0.98;0.80;;;;;;;;;;5093951;28;20032;-65
2021/05/20 14:39:05;;;;;;;0.85;0.70;;;;;;;;;;5093856;28;20028;-65
2021/05/20 14:41:31;;;;;;;0.80;0.80;;;;;;;;;;5093732;28;20599;-66
2021/05/20 14:43:57;;;;;;;1.15;0.70;;;;;;;;;;5075550;28;20035;-65
2021/05/20 14:46:22;;;;;;;1.17;0.98;;;;;;;;;;5093855;28;20020;-65
2021/05/20 14:48:48;;;;;;;1.10;1.02;;;;;;;;;;5092485;28;20073;-65
2021/05/20 14:51:59;;;;;;;0.93;0.93;;;;;;;;;;5093475;28;20123;-68